sensor_id;sensor_type;location;lat;lon;timestamp;P1;durP1;ratioP1;P2;durP2;ratioP2
46116;SDS011;32591;48.102;11.772;2023-06-10T00:01:38;6.53;;;4.88;;
46116;SDS011;32591;48.102;11.772;2023-06-10T00:04:06;6.95;;;5.43;;
46116;SDS011;32591;48.102;11.772;2023-06-10T00:06:33;6.82;;;5.35;;
46116;SDS011;32591;48.102;11.772;2023-06-10T00:09:02;8.75;;;6.18;;
46116;SDS011;32591;48.102;11.772;2023-06-10T00:11:30;6.43;;;5.53;;
46116;SDS011;32591;48.102;11.772;2023-06-10T00:13:58;7.30;;;5.95;;
46116;SDS011;32591;48.102;11.772;2023-06-10T00:16:26;7.13;;;5.72;;
46116;SDS011;32591;48.102;11.772;2023-06-10T00:18:53;6.18;;;5.40;;
46116;SDS011;32591;48.102;11.772;2023-06-10T00:21:25;6.70;;;5.25;;
46116;SDS011;32591;48.102;11.772;2023-06-10T00:23:52;7.25;;;6.10;;
46116;SDS011;32591;48.102;11.772;2023-06-10T00:26:20;6.30;;;5.50;;
46116;SDS011;32591;48.102;11.772;2023-06-10T00:28:48;6.93;;;5.53;;
46116;SDS011;32591;48.102;11.772;2023-06-10T00:31:15;6.25;;;5.28;;
46116;SDS011;32591;48.102;11.772;2023-06-10T00:33:43;9.90;;;6.75;;
46116;SDS011;32591;48.102;11.772;2023-06-10T00:36:10;7.20;;;5.47;;
46116;SDS011;32591;48.102;11.772;2023-06-10T00:38:37;6.97;;;6.20;;
46116;SDS011;32591;48.102;11.772;2023-06-10T00:41:05;8.70;;;6.13;;
46116;SDS011;32591;48.102;11.772;2023-06-10T00:43:32;6.90;;;5.75;;
46116;SDS011;32591;48.102;11.772;2023-06-10T00:45:59;7.53;;;5.38;;
46116;SDS011;32591;48.102;11.772;2023-06-10T00:48:27;5.80;;;5.20;;
46116;SDS011;32591;48.102;11.772;2023-06-10T00:50:56;6.55;;;5.63;;
46116;SDS011;32591;48.102;11.772;2023-06-10T00:53:24;8.63;;;6.10;;
46116;SDS011;32591;48.102;11.772;2023-06-10T00:55:51;7.75;;;6.10;;
46116;SDS011;32591;48.102;11.772;2023-06-10T00:58:18;7.13;;;5.95;;
46116;SDS011;32591;48.102;11.772;2023-06-10T01:00:45;7.57;;;6.05;;
46116;SDS011;32591;48.102;11.772;2023-06-10T01:03:12;6.25;;;5.07;;
46116;SDS011;32591;48.102;11.772;2023-06-10T01:05:42;6.93;;;5.55;;
46116;SDS011;32591;48.102;11.772;2023-06-10T01:08:13;8.07;;;5.93;;
46116;SDS011;32591;48.102;11.772;2023-06-10T01:10:48;6.63;;;5.65;;
46116;SDS011;32591;48.102;11.772;2023-06-10T01:13:20;8.00;;;6.07;;
46116;SDS011;32591;48.102;11.772;2023-06-10T01:15:49;7.57;;;5.88;;
46116;SDS011;32591;48.102;11.772;2023-06-10T01:18:17;7.78;;;5.75;;
46116;SDS011;32591;48.102;11.772;2023-06-10T01:20:44;9.18;;;6.10;;
46116;SDS011;32591;48.102;11.772;2023-06-10T01:23:15;9.48;;;6.15;;
46116;SDS011;32591;48.102;11.772;2023-06-10T01:25:44;8.07;;;6.88;;
46116;SDS011;32591;48.102;11.772;2023-06-10T01:28:17;7.68;;;5.88;;
46116;SDS011;32591;48.102;11.772;2023-06-10T01:30:48;8.38;;;6.25;;
46116;SDS011;32591;48.102;11.772;2023-06-10T01:33:25;7.38;;;5.85;;
46116;SDS011;32591;48.102;11.772;2023-06-10T01:35:56;7.10;;;5.65;;
46116;SDS011;32591;48.102;11.772;2023-06-10T01:38:26;6.35;;;5.10;;
46116;SDS011;32591;48.102;11.772;2023-06-10T01:40:55;7.43;;;6.25;;
46116;SDS011;32591;48.102;11.772;2023-06-10T01:43:23;8.05;;;6.55;;
46116;SDS011;32591;48.102;11.772;2023-06-10T01:45:50;7.32;;;5.50;;
46116;SDS011;32591;48.102;11.772;2023-06-10T01:48:17;7.72;;;5.78;;
46116;SDS011;32591;48.102;11.772;2023-06-10T01:50:44;7.22;;;6.00;;
46116;SDS011;32591;48.102;11.772;2023-06-10T01:53:11;7.85;;;5.93;;
46116;SDS011;32591;48.102;11.772;2023-06-10T01:55:39;9.00;;;5.95;;
46116;SDS011;32591;48.102;11.772;2023-06-10T01:58:06;6.95;;;5.45;;
46116;SDS011;32591;48.102;11.772;2023-06-10T02:00:33;7.30;;;6.00;;
46116;SDS011;32591;48.102;11.772;2023-06-10T02:03:00;8.43;;;6.13;;
46116;SDS011;32591;48.102;11.772;2023-06-10T02:05:27;9.25;;;5.75;;
46116;SDS011;32591;48.102;11.772;2023-06-10T02:07:54;8.05;;;6.15;;
46116;SDS011;32591;48.102;11.772;2023-06-10T02:10:21;8.25;;;5.95;;
46116;SDS011;32591;48.102;11.772;2023-06-10T02:12:49;9.10;;;6.63;;
46116;SDS011;32591;48.102;11.772;2023-06-10T02:15:16;8.07;;;5.75;;
46116;SDS011;32591;48.102;11.772;2023-06-10T02:17:43;9.40;;;6.53;;
46116;SDS011;32591;48.102;11.772;2023-06-10T02:20:11;8.23;;;6.28;;
46116;SDS011;32591;48.102;11.772;2023-06-10T02:22:38;7.72;;;6.53;;
46116;SDS011;32591;48.102;11.772;2023-06-10T02:25:06;8.32;;;5.82;;
46116;SDS011;32591;48.102;11.772;2023-06-10T02:27:34;6.15;;;5.38;;
46116;SDS011;32591;48.102;11.772;2023-06-10T02:30:02;7.55;;;5.72;;
46116;SDS011;32591;48.102;11.772;2023-06-10T02:32:30;8.15;;;6.10;;
46116;SDS011;32591;48.102;11.772;2023-06-10T02:34:57;7.10;;;5.80;;
46116;SDS011;32591;48.102;11.772;2023-06-10T02:37:25;7.32;;;6.03;;
46116;SDS011;32591;48.102;11.772;2023-06-10T02:39:52;8.65;;;6.78;;
46116;SDS011;32591;48.102;11.772;2023-06-10T02:42:19;7.70;;;6.20;;
46116;SDS011;32591;48.102;11.772;2023-06-10T02:44:46;6.88;;;5.65;;
46116;SDS011;32591;48.102;11.772;2023-06-10T02:47:14;8.15;;;6.57;;
46116;SDS011;32591;48.102;11.772;2023-06-10T02:49:41;7.70;;;6.07;;
46116;SDS011;32591;48.102;11.772;2023-06-10T02:52:08;8.30;;;6.13;;
46116;SDS011;32591;48.102;11.772;2023-06-10T02:54:36;7.38;;;5.65;;
46116;SDS011;32591;48.102;11.772;2023-06-10T02:57:03;8.23;;;5.53;;
46116;SDS011;32591;48.102;11.772;2023-06-10T02:59:32;9.95;;;5.78;;
46116;SDS011;32591;48.102;11.772;2023-06-10T03:02:00;7.32;;;6.30;;
46116;SDS011;32591;48.102;11.772;2023-06-10T03:04:28;7.00;;;5.68;;
46116;SDS011;32591;48.102;11.772;2023-06-10T03:06:55;6.88;;;6.00;;
46116;SDS011;32591;48.102;11.772;2023-06-10T03:09:22;9.32;;;6.60;;
46116;SDS011;32591;48.102;11.772;2023-06-10T03:11:49;6.82;;;6.13;;
46116;SDS011;32591;48.102;11.772;2023-06-10T03:14:16;8.98;;;6.43;;
46116;SDS011;32591;48.102;11.772;2023-06-10T03:16:43;7.00;;;5.70;;
46116;SDS011;32591;48.102;11.772;2023-06-10T03:19:10;7.75;;;6.32;;
46116;SDS011;32591;48.102;11.772;2023-06-10T03:21:38;9.20;;;6.30;;
46116;SDS011;32591;48.102;11.772;2023-06-10T03:24:06;9.40;;;6.10;;
46116;SDS011;32591;48.102;11.772;2023-06-10T03:26:33;7.18;;;6.07;;
46116;SDS011;32591;48.102;11.772;2023-06-10T03:29:00;10.05;;;6.57;;
46116;SDS011;32591;48.102;11.772;2023-06-10T03:31:27;7.75;;;6.03;;
46116;SDS011;32591;48.102;11.772;2023-06-10T03:33:54;9.75;;;6.68;;
46116;SDS011;32591;48.102;11.772;2023-06-10T03:36:21;6.72;;;6.00;;
46116;SDS011;32591;48.102;11.772;2023-06-10T03:38:49;7.82;;;5.63;;
46116;SDS011;32591;48.102;11.772;2023-06-10T03:41:17;6.97;;;5.75;;
46116;SDS011;32591;48.102;11.772;2023-06-10T03:43:43;8.00;;;6.30;;
46116;SDS011;32591;48.102;11.772;2023-06-10T03:46:11;7.85;;;6.40;;
46116;SDS011;32591;48.102;11.772;2023-06-10T03:48:38;7.78;;;5.75;;
46116;SDS011;32591;48.102;11.772;2023-06-10T03:51:05;7.82;;;5.78;;
46116;SDS011;32591;48.102;11.772;2023-06-10T03:53:32;7.25;;;5.55;;
46116;SDS011;32591;48.102;11.772;2023-06-10T03:56:00;7.88;;;6.15;;
46116;SDS011;32591;48.102;11.772;2023-06-10T03:58:27;9.38;;;7.45;;
46116;SDS011;32591;48.102;11.772;2023-06-10T04:00:54;8.02;;;6.65;;
46116;SDS011;32591;48.102;11.772;2023-06-10T04:03:21;7.70;;;5.93;;
46116;SDS011;32591;48.102;11.772;2023-06-10T04:05:49;7.55;;;6.45;;
46116;SDS011;32591;48.102;11.772;2023-06-10T04:08:16;9.73;;;6.00;;
46116;SDS011;32591;48.102;11.772;2023-06-10T04:10:43;8.38;;;6.05;;
46116;SDS011;32591;48.102;11.772;2023-06-10T04:13:11;9.27;;;6.93;;
46116;SDS011;32591;48.102;11.772;2023-06-10T04:15:39;10.13;;;7.88;;
46116;SDS011;32591;48.102;11.772;2023-06-10T04:18:06;9.93;;;7.57;;
46116;SDS011;32591;48.102;11.772;2023-06-10T04:20:33;10.75;;;7.60;;
46116;SDS011;32591;48.102;11.772;2023-06-10T04:23:00;10.88;;;7.43;;
46116;SDS011;32591;48.102;11.772;2023-06-10T04:25:27;10.07;;;8.10;;
46116;SDS011;32591;48.102;11.772;2023-06-10T04:27:54;10.73;;;8.40;;
46116;SDS011;32591;48.102;11.772;2023-06-10T04:30:23;10.13;;;8.15;;
46116;SDS011;32591;48.102;11.772;2023-06-10T04:32:49;9.70;;;7.60;;
46116;SDS011;32591;48.102;11.772;2023-06-10T04:35:17;10.60;;;8.60;;
46116;SDS011;32591;48.102;11.772;2023-06-10T04:37:44;10.45;;;8.13;;
46116;SDS011;32591;48.102;11.772;2023-06-10T04:40:11;9.45;;;8.10;;
46116;SDS011;32591;48.102;11.772;2023-06-10T04:42:38;10.52;;;8.20;;
46116;SDS011;32591;48.102;11.772;2023-06-10T04:45:06;12.05;;;8.95;;
46116;SDS011;32591;48.102;11.772;2023-06-10T04:47:35;10.25;;;9.07;;
46116;SDS011;32591;48.102;11.772;2023-06-10T04:50:03;9.63;;;8.38;;
46116;SDS011;32591;48.102;11.772;2023-06-10T04:52:30;12.07;;;9.40;;
46116;SDS011;32591;48.102;11.772;2023-06-10T04:54:58;10.85;;;8.93;;
46116;SDS011;32591;48.102;11.772;2023-06-10T04:57:25;12.40;;;8.82;;
46116;SDS011;32591;48.102;11.772;2023-06-10T04:59:52;11.55;;;8.68;;
46116;SDS011;32591;48.102;11.772;2023-06-10T05:02:20;11.90;;;8.75;;
46116;SDS011;32591;48.102;11.772;2023-06-10T05:04:48;9.90;;;7.75;;
46116;SDS011;32591;48.102;11.772;2023-06-10T05:07:15;10.27;;;7.60;;
46116;SDS011;32591;48.102;11.772;2023-06-10T05:09:42;10.93;;;7.43;;
46116;SDS011;32591;48.102;11.772;2023-06-10T05:12:10;10.63;;;8.07;;
46116;SDS011;32591;48.102;11.772;2023-06-10T05:14:37;9.38;;;7.82;;
46116;SDS011;32591;48.102;11.772;2023-06-10T05:17:04;12.45;;;9.38;;
46116;SDS011;32591;48.102;11.772;2023-06-10T05:19:32;10.93;;;8.48;;
46116;SDS011;32591;48.102;11.772;2023-06-10T05:22:02;11.40;;;8.50;;
46116;SDS011;32591;48.102;11.772;2023-06-10T05:24:29;10.95;;;8.50;;
46116;SDS011;32591;48.102;11.772;2023-06-10T05:26:56;11.13;;;8.57;;
46116;SDS011;32591;48.102;11.772;2023-06-10T05:29:23;10.77;;;8.77;;
46116;SDS011;32591;48.102;11.772;2023-06-10T05:31:51;10.65;;;7.43;;
46116;SDS011;32591;48.102;11.772;2023-06-10T05:34:18;11.48;;;9.57;;
46116;SDS011;32591;48.102;11.772;2023-06-10T05:36:45;12.88;;;9.48;;
46116;SDS011;32591;48.102;11.772;2023-06-10T05:39:14;10.25;;;8.35;;
46116;SDS011;32591;48.102;11.772;2023-06-10T05:41:41;11.75;;;8.85;;
46116;SDS011;32591;48.102;11.772;2023-06-10T05:44:07;11.27;;;8.60;;
46116;SDS011;32591;48.102;11.772;2023-06-10T05:46:34;12.32;;;8.38;;
46116;SDS011;32591;48.102;11.772;2023-06-10T05:49:01;13.02;;;8.55;;
46116;SDS011;32591;48.102;11.772;2023-06-10T05:51:28;11.45;;;8.88;;
46116;SDS011;32591;48.102;11.772;2023-06-10T05:53:55;10.93;;;8.38;;
46116;SDS011;32591;48.102;11.772;2023-06-10T05:56:24;9.98;;;7.85;;
46116;SDS011;32591;48.102;11.772;2023-06-10T05:58:51;10.95;;;8.65;;
46116;SDS011;32591;48.102;11.772;2023-06-10T06:01:18;10.35;;;8.18;;
46116;SDS011;32591;48.102;11.772;2023-06-10T06:03:45;9.50;;;7.97;;
46116;SDS011;32591;48.102;11.772;2023-06-10T06:06:12;9.40;;;7.82;;
46116;SDS011;32591;48.102;11.772;2023-06-10T06:08:39;9.27;;;7.57;;
46116;SDS011;32591;48.102;11.772;2023-06-10T06:11:05;10.27;;;8.20;;
46116;SDS011;32591;48.102;11.772;2023-06-10T06:13:34;11.15;;;8.07;;
46116;SDS011;32591;48.102;11.772;2023-06-10T06:16:01;9.48;;;7.70;;
46116;SDS011;32591;48.102;11.772;2023-06-10T06:18:28;8.85;;;7.80;;
46116;SDS011;32591;48.102;11.772;2023-06-10T06:20:55;9.60;;;6.63;;
46116;SDS011;32591;48.102;11.772;2023-06-10T06:23:22;9.57;;;7.57;;
46116;SDS011;32591;48.102;11.772;2023-06-10T06:25:49;12.90;;;8.02;;
46116;SDS011;32591;48.102;11.772;2023-06-10T06:28:16;10.75;;;7.28;;
46116;SDS011;32591;48.102;11.772;2023-06-10T06:30:45;8.25;;;6.72;;
46116;SDS011;32591;48.102;11.772;2023-06-10T06:33:12;10.10;;;7.40;;
46116;SDS011;32591;48.102;11.772;2023-06-10T06:35:39;9.15;;;7.07;;
46116;SDS011;32591;48.102;11.772;2023-06-10T06:38:06;8.25;;;5.95;;
46116;SDS011;32591;48.102;11.772;2023-06-10T06:40:33;8.05;;;6.80;;
46116;SDS011;32591;48.102;11.772;2023-06-10T06:43:00;8.00;;;6.25;;
46116;SDS011;32591;48.102;11.772;2023-06-10T06:45:27;9.52;;;6.55;;
46116;SDS011;32591;48.102;11.772;2023-06-10T06:47:56;8.93;;;6.15;;
46116;SDS011;32591;48.102;11.772;2023-06-10T06:50:23;8.75;;;6.15;;
46116;SDS011;32591;48.102;11.772;2023-06-10T06:52:50;7.80;;;6.13;;
46116;SDS011;32591;48.102;11.772;2023-06-10T06:55:17;7.50;;;5.68;;
46116;SDS011;32591;48.102;11.772;2023-06-10T06:57:44;7.20;;;5.88;;
46116;SDS011;32591;48.102;11.772;2023-06-10T07:00:11;7.97;;;6.35;;
46116;SDS011;32591;48.102;11.772;2023-06-10T07:02:39;9.23;;;5.90;;
46116;SDS011;32591;48.102;11.772;2023-06-10T07:05:07;7.50;;;5.32;;
46116;SDS011;32591;48.102;11.772;2023-06-10T07:07:35;7.20;;;5.05;;
46116;SDS011;32591;48.102;11.772;2023-06-10T07:10:02;7.03;;;5.43;;
46116;SDS011;32591;48.102;11.772;2023-06-10T07:12:30;5.97;;;4.78;;
46116;SDS011;32591;48.102;11.772;2023-06-10T07:14:57;7.97;;;5.63;;
46116;SDS011;32591;48.102;11.772;2023-06-10T07:17:24;9.70;;;5.95;;
46116;SDS011;32591;48.102;11.772;2023-06-10T07:19:52;6.15;;;5.18;;
46116;SDS011;32591;48.102;11.772;2023-06-10T07:22:23;5.95;;;4.95;;
46116;SDS011;32591;48.102;11.772;2023-06-10T07:24:50;7.85;;;4.90;;
46116;SDS011;32591;48.102;11.772;2023-06-10T07:27:20;7.32;;;4.93;;
46116;SDS011;32591;48.102;11.772;2023-06-10T07:29:47;6.35;;;5.10;;
46116;SDS011;32591;48.102;11.772;2023-06-10T07:32:14;5.28;;;4.40;;
46116;SDS011;32591;48.102;11.772;2023-06-10T07:34:41;5.85;;;4.13;;
46116;SDS011;32591;48.102;11.772;2023-06-10T07:37:08;5.18;;;4.30;;
46116;SDS011;32591;48.102;11.772;2023-06-10T07:39:36;5.53;;;4.45;;
46116;SDS011;32591;48.102;11.772;2023-06-10T07:42:03;5.35;;;4.32;;
46116;SDS011;32591;48.102;11.772;2023-06-10T07:44:31;4.82;;;3.85;;
46116;SDS011;32591;48.102;11.772;2023-06-10T07:46:58;5.32;;;4.07;;
46116;SDS011;32591;48.102;11.772;2023-06-10T07:49:25;4.82;;;3.65;;
46116;SDS011;32591;48.102;11.772;2023-06-10T07:51:53;3.90;;;3.47;;
46116;SDS011;32591;48.102;11.772;2023-06-10T07:54:21;4.50;;;4.03;;
46116;SDS011;32591;48.102;11.772;2023-06-10T07:56:49;5.07;;;3.75;;
46116;SDS011;32591;48.102;11.772;2023-06-10T07:59:17;5.88;;;3.63;;
46116;SDS011;32591;48.102;11.772;2023-06-10T08:01:45;4.40;;;3.65;;
46116;SDS011;32591;48.102;11.772;2023-06-10T08:04:12;5.93;;;3.63;;
46116;SDS011;32591;48.102;11.772;2023-06-10T08:06:39;4.50;;;3.40;;
46116;SDS011;32591;48.102;11.772;2023-06-10T08:09:05;4.40;;;3.55;;
46116;SDS011;32591;48.102;11.772;2023-06-10T08:11:32;4.35;;;3.22;;
46116;SDS011;32591;48.102;11.772;2023-06-10T08:14:01;5.13;;;3.60;;
46116;SDS011;32591;48.102;11.772;2023-06-10T08:16:28;4.00;;;3.15;;
46116;SDS011;32591;48.102;11.772;2023-06-10T08:18:55;4.63;;;3.47;;
46116;SDS011;32591;48.102;11.772;2023-06-10T08:21:22;4.63;;;3.50;;
46116;SDS011;32591;48.102;11.772;2023-06-10T08:23:52;4.43;;;3.53;;
46116;SDS011;32591;48.102;11.772;2023-06-10T08:26:19;5.18;;;3.85;;
46116;SDS011;32591;48.102;11.772;2023-06-10T08:28:46;4.53;;;3.42;;
46116;SDS011;32591;48.102;11.772;2023-06-10T08:31:15;4.25;;;3.53;;
46116;SDS011;32591;48.102;11.772;2023-06-10T08:33:42;5.07;;;3.55;;
46116;SDS011;32591;48.102;11.772;2023-06-10T08:36:09;4.50;;;3.53;;
46116;SDS011;32591;48.102;11.772;2023-06-10T08:38:37;4.90;;;4.00;;
46116;SDS011;32591;48.102;11.772;2023-06-10T08:41:04;4.60;;;3.60;;
46116;SDS011;32591;48.102;11.772;2023-06-10T08:43:33;5.10;;;3.92;;
46116;SDS011;32591;48.102;11.772;2023-06-10T08:46:07;4.63;;;3.63;;
46116;SDS011;32591;48.102;11.772;2023-06-10T08:48:38;4.68;;;3.90;;
46116;SDS011;32591;48.102;11.772;2023-06-10T08:51:10;4.25;;;3.55;;
46116;SDS011;32591;48.102;11.772;2023-06-10T08:53:38;4.63;;;3.40;;
46116;SDS011;32591;48.102;11.772;2023-06-10T08:56:14;4.45;;;3.50;;
46116;SDS011;32591;48.102;11.772;2023-06-10T08:58:42;5.20;;;3.65;;
46116;SDS011;32591;48.102;11.772;2023-06-10T09:01:11;3.67;;;3.05;;
46116;SDS011;32591;48.102;11.772;2023-06-10T09:03:40;4.65;;;3.63;;
46116;SDS011;32591;48.102;11.772;2023-06-10T09:06:08;4.80;;;3.20;;
46116;SDS011;32591;48.102;11.772;2023-06-10T09:08:36;4.47;;;3.40;;
46116;SDS011;32591;48.102;11.772;2023-06-10T09:11:03;5.25;;;3.83;;
46116;SDS011;32591;48.102;11.772;2023-06-10T09:13:30;4.43;;;3.42;;
46116;SDS011;32591;48.102;11.772;2023-06-10T09:15:58;4.53;;;3.80;;
46116;SDS011;32591;48.102;11.772;2023-06-10T09:18:27;4.88;;;3.72;;
46116;SDS011;32591;48.102;11.772;2023-06-10T09:20:55;4.93;;;4.18;;
46116;SDS011;32591;48.102;11.772;2023-06-10T09:23:23;5.60;;;4.05;;
46116;SDS011;32591;48.102;11.772;2023-06-10T09:25:55;5.15;;;3.47;;
46116;SDS011;32591;48.102;11.772;2023-06-10T09:28:23;4.82;;;3.47;;
46116;SDS011;32591;48.102;11.772;2023-06-10T09:31:00;4.63;;;3.95;;
46116;SDS011;32591;48.102;11.772;2023-06-10T09:33:29;4.32;;;3.70;;
46116;SDS011;32591;48.102;11.772;2023-06-10T09:35:59;5.05;;;3.60;;
46116;SDS011;32591;48.102;11.772;2023-06-10T09:38:32;4.22;;;3.40;;
46116;SDS011;32591;48.102;11.772;2023-06-10T09:41:02;4.18;;;3.30;;
46116;SDS011;32591;48.102;11.772;2023-06-10T09:43:38;5.18;;;4.00;;
46116;SDS011;32591;48.102;11.772;2023-06-10T09:46:07;7.03;;;3.83;;
46116;SDS011;32591;48.102;11.772;2023-06-10T09:48:41;4.78;;;3.90;;
46116;SDS011;32591;48.102;11.772;2023-06-10T09:51:11;4.65;;;4.05;;
46116;SDS011;32591;48.102;11.772;2023-06-10T09:53:39;5.43;;;3.38;;
46116;SDS011;32591;48.102;11.772;2023-06-10T09:56:07;4.80;;;4.15;;
46116;SDS011;32591;48.102;11.772;2023-06-10T09:58:34;4.88;;;4.13;;
46116;SDS011;32591;48.102;11.772;2023-06-10T10:01:05;5.65;;;4.40;;
46116;SDS011;32591;48.102;11.772;2023-06-10T10:03:33;4.78;;;3.70;;
46116;SDS011;32591;48.102;11.772;2023-06-10T10:06:00;5.00;;;4.20;;
46116;SDS011;32591;48.102;11.772;2023-06-10T10:08:28;4.90;;;4.20;;
46116;SDS011;32591;48.102;11.772;2023-06-10T10:10:56;6.53;;;4.55;;
46116;SDS011;32591;48.102;11.772;2023-06-10T10:13:24;5.30;;;4.18;;
46116;SDS011;32591;48.102;11.772;2023-06-10T10:15:53;5.72;;;4.10;;
46116;SDS011;32591;48.102;11.772;2023-06-10T10:18:22;6.00;;;4.32;;
46116;SDS011;32591;48.102;11.772;2023-06-10T10:20:55;4.60;;;3.70;;
46116;SDS011;32591;48.102;11.772;2023-06-10T10:23:31;6.45;;;4.25;;
46116;SDS011;32591;48.102;11.772;2023-06-10T10:26:07;6.40;;;3.45;;
46116;SDS011;32591;48.102;11.772;2023-06-10T10:28:38;5.93;;;3.80;;
46116;SDS011;32591;48.102;11.772;2023-06-10T10:31:11;4.28;;;3.72;;
46116;SDS011;32591;48.102;11.772;2023-06-10T10:33:45;5.22;;;3.70;;
46116;SDS011;32591;48.102;11.772;2023-06-10T10:36:21;4.40;;;4.00;;
46116;SDS011;32591;48.102;11.772;2023-06-10T10:38:50;3.47;;;3.00;;
46116;SDS011;32591;48.102;11.772;2023-06-10T10:41:18;4.38;;;3.38;;
46116;SDS011;32591;48.102;11.772;2023-06-10T10:43:46;4.32;;;3.45;;
46116;SDS011;32591;48.102;11.772;2023-06-10T10:46:16;4.43;;;3.70;;
46116;SDS011;32591;48.102;11.772;2023-06-10T10:48:44;5.18;;;3.58;;
46116;SDS011;32591;48.102;11.772;2023-06-10T10:51:11;3.22;;;2.72;;
46116;SDS011;32591;48.102;11.772;2023-06-10T10:53:41;3.35;;;2.97;;
46116;SDS011;32591;48.102;11.772;2023-06-10T10:56:13;4.22;;;3.38;;
46116;SDS011;32591;48.102;11.772;2023-06-10T10:58:48;5.55;;;3.30;;
46116;SDS011;32591;48.102;11.772;2023-06-10T11:01:39;3.72;;;2.95;;
46116;SDS011;32591;48.102;11.772;2023-06-10T11:04:07;3.60;;;2.92;;
46116;SDS011;32591;48.102;11.772;2023-06-10T11:06:35;3.25;;;2.92;;
46116;SDS011;32591;48.102;11.772;2023-06-10T11:09:02;3.13;;;2.72;;
46116;SDS011;32591;48.102;11.772;2023-06-10T11:11:56;3.20;;;2.30;;
46116;SDS011;32591;48.102;11.772;2023-06-10T11:14:28;3.45;;;2.53;;
46116;SDS011;32591;48.102;11.772;2023-06-10T11:16:57;4.32;;;2.97;;
46116;SDS011;32591;48.102;11.772;2023-06-10T11:19:31;3.38;;;2.72;;
46116;SDS011;32591;48.102;11.772;2023-06-10T11:22:00;2.35;;;2.08;;
46116;SDS011;32591;48.102;11.772;2023-06-10T11:24:29;5.18;;;3.00;;
46116;SDS011;32591;48.102;11.772;2023-06-10T11:29:56;3.47;;;2.80;;
46116;SDS011;32591;48.102;11.772;2023-06-10T11:32:45;3.65;;;2.83;;
46116;SDS011;32591;48.102;11.772;2023-06-10T11:35:18;3.05;;;2.75;;
46116;SDS011;32591;48.102;11.772;2023-06-10T11:37:46;2.92;;;2.60;;
46116;SDS011;32591;48.102;11.772;2023-06-10T11:40:16;3.42;;;2.70;;
46116;SDS011;32591;48.102;11.772;2023-06-10T11:42:43;3.63;;;3.03;;
46116;SDS011;32591;48.102;11.772;2023-06-10T11:45:14;4.38;;;3.20;;
46116;SDS011;32591;48.102;11.772;2023-06-10T11:47:54;3.20;;;2.65;;
46116;SDS011;32591;48.102;11.772;2023-06-10T11:50:29;3.92;;;2.90;;
46116;SDS011;32591;48.102;11.772;2023-06-10T11:52:57;4.93;;;2.80;;
46116;SDS011;32591;48.102;11.772;2023-06-10T11:55:26;4.65;;;3.33;;
46116;SDS011;32591;48.102;11.772;2023-06-10T11:58:14;4.15;;;3.08;;
46116;SDS011;32591;48.102;11.772;2023-06-10T12:00:45;3.85;;;2.70;;
46116;SDS011;32591;48.102;11.772;2023-06-10T12:03:13;4.03;;;2.60;;
46116;SDS011;32591;48.102;11.772;2023-06-10T12:05:40;4.35;;;3.42;;
46116;SDS011;32591;48.102;11.772;2023-06-10T12:08:23;3.08;;;2.67;;
46116;SDS011;32591;48.102;11.772;2023-06-10T12:10:53;3.35;;;2.88;;
46116;SDS011;32591;48.102;11.772;2023-06-10T12:13:20;3.10;;;2.53;;
46116;SDS011;32591;48.102;11.772;2023-06-10T12:15:49;3.78;;;2.78;;
46116;SDS011;32591;48.102;11.772;2023-06-10T12:18:19;3.22;;;2.60;;
46116;SDS011;32591;48.102;11.772;2023-06-10T12:20:49;2.72;;;2.50;;
46116;SDS011;32591;48.102;11.772;2023-06-10T12:23:17;4.03;;;3.10;;
46116;SDS011;32591;48.102;11.772;2023-06-10T12:25:49;3.08;;;2.72;;
46116;SDS011;32591;48.102;11.772;2023-06-10T12:28:21;3.60;;;3.00;;
46116;SDS011;32591;48.102;11.772;2023-06-10T12:30:50;4.00;;;3.15;;
46116;SDS011;32591;48.102;11.772;2023-06-10T12:33:17;4.63;;;3.10;;
46116;SDS011;32591;48.102;11.772;2023-06-10T12:35:48;3.35;;;2.70;;
46116;SDS011;32591;48.102;11.772;2023-06-10T12:38:20;4.13;;;3.00;;
46116;SDS011;32591;48.102;11.772;2023-06-10T12:40:49;3.28;;;2.72;;
46116;SDS011;32591;48.102;11.772;2023-06-10T12:43:19;3.80;;;3.30;;
46116;SDS011;32591;48.102;11.772;2023-06-10T12:45:48;4.00;;;2.97;;
46116;SDS011;32591;48.102;11.772;2023-06-10T12:48:19;3.92;;;3.33;;
46116;SDS011;32591;48.102;11.772;2023-06-10T12:50:50;4.38;;;3.33;;
46116;SDS011;32591;48.102;11.772;2023-06-10T12:53:19;6.88;;;4.03;;
46116;SDS011;32591;48.102;11.772;2023-06-10T12:55:48;5.70;;;4.20;;
46116;SDS011;32591;48.102;11.772;2023-06-10T12:58:15;4.80;;;3.80;;
46116;SDS011;32591;48.102;11.772;2023-06-10T13:00:44;6.35;;;4.20;;
46116;SDS011;32591;48.102;11.772;2023-06-10T13:03:11;4.35;;;3.60;;
46116;SDS011;32591;48.102;11.772;2023-06-10T13:05:39;4.75;;;3.70;;
46116;SDS011;32591;48.102;11.772;2023-06-10T13:08:06;7.53;;;4.05;;
46116;SDS011;32591;48.102;11.772;2023-06-10T13:10:35;4.10;;;3.42;;
46116;SDS011;32591;48.102;11.772;2023-06-10T13:13:03;4.63;;;4.05;;
46116;SDS011;32591;48.102;11.772;2023-06-10T13:15:31;5.38;;;3.45;;
46116;SDS011;32591;48.102;11.772;2023-06-10T13:18:02;5.32;;;3.58;;
46116;SDS011;32591;48.102;11.772;2023-06-10T13:20:30;4.18;;;3.78;;
46116;SDS011;32591;48.102;11.772;2023-06-10T13:22:57;5.43;;;3.50;;
46116;SDS011;32591;48.102;11.772;2023-06-10T13:25:24;4.20;;;3.80;;
46116;SDS011;32591;48.102;11.772;2023-06-10T13:27:51;6.28;;;3.70;;
46116;SDS011;32591;48.102;11.772;2023-06-10T13:30:19;5.50;;;3.58;;
46116;SDS011;32591;48.102;11.772;2023-06-10T13:32:46;4.80;;;3.50;;
46116;SDS011;32591;48.102;11.772;2023-06-10T13:35:15;6.78;;;3.78;;
46116;SDS011;32591;48.102;11.772;2023-06-10T13:37:42;3.90;;;3.22;;
46116;SDS011;32591;48.102;11.772;2023-06-10T13:40:10;5.63;;;3.60;;
46116;SDS011;32591;48.102;11.772;2023-06-10T13:42:37;4.90;;;3.65;;
46116;SDS011;32591;48.102;11.772;2023-06-10T13:45:05;3.47;;;2.97;;
46116;SDS011;32591;48.102;11.772;2023-06-10T13:47:34;3.90;;;3.45;;
46116;SDS011;32591;48.102;11.772;2023-06-10T13:50:01;3.75;;;3.40;;
46116;SDS011;32591;48.102;11.772;2023-06-10T13:52:30;3.92;;;3.00;;
46116;SDS011;32591;48.102;11.772;2023-06-10T13:54:56;5.22;;;3.28;;
46116;SDS011;32591;48.102;11.772;2023-06-10T13:57:23;3.47;;;3.08;;
46116;SDS011;32591;48.102;11.772;2023-06-10T13:59:52;4.22;;;3.38;;
46116;SDS011;32591;48.102;11.772;2023-06-10T14:02:21;4.40;;;2.95;;
46116;SDS011;32591;48.102;11.772;2023-06-10T14:04:48;3.72;;;2.95;;
46116;SDS011;32591;48.102;11.772;2023-06-10T14:07:15;4.03;;;3.08;;
46116;SDS011;32591;48.102;11.772;2023-06-10T14:09:43;4.57;;;3.42;;
46116;SDS011;32591;48.102;11.772;2023-06-10T14:12:10;3.83;;;3.15;;
46116;SDS011;32591;48.102;11.772;2023-06-10T14:14:37;4.00;;;3.40;;
46116;SDS011;32591;48.102;11.772;2023-06-10T14:17:05;5.45;;;4.25;;
46116;SDS011;32591;48.102;11.772;2023-06-10T14:19:32;4.53;;;3.63;;
46116;SDS011;32591;48.102;11.772;2023-06-10T14:21:59;5.38;;;3.40;;
46116;SDS011;32591;48.102;11.772;2023-06-10T14:24:26;4.07;;;3.22;;
46116;SDS011;32591;48.102;11.772;2023-06-10T14:26:54;3.80;;;3.10;;
46116;SDS011;32591;48.102;11.772;2023-06-10T14:29:23;4.32;;;3.17;;
46116;SDS011;32591;48.102;11.772;2023-06-10T14:31:52;4.15;;;2.85;;
46116;SDS011;32591;48.102;11.772;2023-06-10T14:34:19;4.07;;;2.45;;
46116;SDS011;32591;48.102;11.772;2023-06-10T14:36:48;3.30;;;2.42;;
46116;SDS011;32591;48.102;11.772;2023-06-10T14:39:15;2.55;;;2.33;;
46116;SDS011;32591;48.102;11.772;2023-06-10T14:41:42;3.75;;;3.20;;
46116;SDS011;32591;48.102;11.772;2023-06-10T14:44:10;4.97;;;4.10;;